sensor_id;sensor_type;location;lat;lon;timestamp;P1;durP1;ratioP1;P2;durP2;ratioP2
49730;SDS011;35622;52.008;5.426;2023-01-10T00:01:50;11.50;;;2.47;;
49730;SDS011;35622;52.008;5.426;2023-01-10T00:04:16;10.20;;;2.13;;
49730;SDS011;35622;52.008;5.426;2023-01-10T00:06:42;13.40;;;2.20;;
49730;SDS011;35622;52.008;5.426;2023-01-10T00:09:09;14.80;;;2.40;;
49730;SDS011;35622;52.008;5.426;2023-01-10T00:11:35;11.60;;;2.30;;
49730;SDS011;35622;52.008;5.426;2023-01-10T00:14:19;11.43;;;2.93;;
49730;SDS011;35622;52.008;5.426;2023-01-10T00:16:45;13.40;;;2.40;;
49730;SDS011;35622;52.008;5.426;2023-01-10T00:19:10;11.17;;;2.53;;
49730;SDS011;35622;52.008;5.426;2023-01-10T00:21:36;9.90;;;2.00;;
49730;SDS011;35622;52.008;5.426;2023-01-10T00:24:03;12.20;;;2.23;;
49730;SDS011;35622;52.008;5.426;2023-01-10T00:26:41;9.43;;;1.73;;
49730;SDS011;35622;52.008;5.426;2023-01-10T00:29:07;14.00;;;2.70;;
49730;SDS011;35622;52.008;5.426;2023-01-10T00:31:33;13.23;;;1.90;;
49730;SDS011;35622;52.008;5.426;2023-01-10T00:33:58;13.07;;;2.23;;
49730;SDS011;35622;52.008;5.426;2023-01-10T00:36:24;18.60;;;2.47;;
49730;SDS011;35622;52.008;5.426;2023-01-10T00:38:49;12.97;;;2.30;;
49730;SDS011;35622;52.008;5.426;2023-01-10T00:41:15;12.83;;;2.30;;
49730;SDS011;35622;52.008;5.426;2023-01-10T00:43:59;12.70;;;2.03;;
49730;SDS011;35622;52.008;5.426;2023-01-10T00:46:25;10.10;;;2.03;;
49730;SDS011;35622;52.008;5.426;2023-01-10T00:48:51;18.57;;;2.33;;
49730;SDS011;35622;52.008;5.426;2023-01-10T00:51:17;11.80;;;2.70;;
49730;SDS011;35622;52.008;5.426;2023-01-10T00:53:42;11.50;;;2.20;;
49730;SDS011;35622;52.008;5.426;2023-01-10T00:56:08;15.32;;;2.67;;
49730;SDS011;35622;52.008;5.426;2023-01-10T00:58:33;14.87;;;2.60;;
49730;SDS011;35622;52.008;5.426;2023-01-10T01:00:59;13.82;;;2.15;;
49730;SDS011;35622;52.008;5.426;2023-01-10T01:03:25;11.73;;;2.03;;
49730;SDS011;35622;52.008;5.426;2023-01-10T01:05:51;11.38;;;2.05;;
49730;SDS011;35622;52.008;5.426;2023-01-10T01:08:17;12.07;;;1.95;;
49730;SDS011;35622;52.008;5.426;2023-01-10T01:10:43;10.32;;;2.40;;
49730;SDS011;35622;52.008;5.426;2023-01-10T01:13:11;13.00;;;2.20;;
49730;SDS011;35622;52.008;5.426;2023-01-10T01:15:42;13.13;;;2.40;;
49730;SDS011;35622;52.008;5.426;2023-01-10T01:18:08;13.50;;;1.67;;
49730;SDS011;35622;52.008;5.426;2023-01-10T01:20:37;8.50;;;1.88;;
49730;SDS011;35622;52.008;5.426;2023-01-10T01:23:03;14.57;;;2.10;;
49730;SDS011;35622;52.008;5.426;2023-01-10T01:25:28;17.05;;;2.30;;
49730;SDS011;35622;52.008;5.426;2023-01-10T01:27:54;8.05;;;1.63;;
49730;SDS011;35622;52.008;5.426;2023-01-10T01:30:20;6.07;;;1.70;;
49730;SDS011;35622;52.008;5.426;2023-01-10T01:32:46;15.13;;;1.80;;
49730;SDS011;35622;52.008;5.426;2023-01-10T01:35:12;17.50;;;2.03;;
49730;SDS011;35622;52.008;5.426;2023-01-10T01:37:40;15.10;;;2.10;;
49730;SDS011;35622;52.008;5.426;2023-01-10T01:40:06;10.57;;;1.97;;
49730;SDS011;35622;52.008;5.426;2023-01-10T01:42:42;15.60;;;1.92;;
49730;SDS011;35622;52.008;5.426;2023-01-10T01:52:59;14.18;;;1.70;;
49730;SDS011;35622;52.008;5.426;2023-01-10T01:55:31;13.13;;;1.80;;
49730;SDS011;35622;52.008;5.426;2023-01-10T01:57:59;15.93;;;1.80;;
49730;SDS011;35622;52.008;5.426;2023-01-10T02:00:28;12.40;;;1.83;;
49730;SDS011;35622;52.008;5.426;2023-01-10T02:02:55;16.90;;;2.08;;
49730;SDS011;35622;52.008;5.426;2023-01-10T02:05:23;13.55;;;1.70;;
49730;SDS011;35622;52.008;5.426;2023-01-10T02:07:54;16.17;;;1.98;;
49730;SDS011;35622;52.008;5.426;2023-01-10T02:10:39;11.70;;;1.73;;
49730;SDS011;35622;52.008;5.426;2023-01-10T02:13:10;10.60;;;1.65;;
49730;SDS011;35622;52.008;5.426;2023-01-10T02:15:37;14.10;;;1.80;;
49730;SDS011;35622;52.008;5.426;2023-01-10T02:18:03;12.52;;;1.95;;
49730;SDS011;35622;52.008;5.426;2023-01-10T02:20:30;12.18;;;1.90;;
49730;SDS011;35622;52.008;5.426;2023-01-10T02:23:55;13.88;;;1.77;;
49730;SDS011;35622;52.008;5.426;2023-01-10T02:32:27;16.88;;;1.80;;
49730;SDS011;35622;52.008;5.426;2023-01-10T02:35:09;12.70;;;2.20;;
49730;SDS011;35622;52.008;5.426;2023-01-10T02:41:19;16.98;;;1.98;;
49730;SDS011;35622;52.008;5.426;2023-01-10T02:47:01;9.18;;;1.83;;
49730;SDS011;35622;52.008;5.426;2023-01-10T02:49:28;15.60;;;1.80;;
49730;SDS011;35622;52.008;5.426;2023-01-10T02:51:54;13.68;;;1.60;;
49730;SDS011;35622;52.008;5.426;2023-01-10T02:54:22;15.18;;;2.08;;
49730;SDS011;35622;52.008;5.426;2023-01-10T03:06:02;18.25;;;2.50;;
49730;SDS011;35622;52.008;5.426;2023-01-10T03:08:36;12.10;;;1.73;;
49730;SDS011;35622;52.008;5.426;2023-01-10T03:11:07;16.65;;;2.22;;
49730;SDS011;35622;52.008;5.426;2023-01-10T03:13:54;13.40;;;2.33;;
49730;SDS011;35622;52.008;5.426;2023-01-10T03:16:26;15.23;;;2.00;;
49730;SDS011;35622;52.008;5.426;2023-01-10T03:18:55;10.30;;;2.13;;
49730;SDS011;35622;52.008;5.426;2023-01-10T03:21:24;12.68;;;2.00;;
49730;SDS011;35622;52.008;5.426;2023-01-10T03:23:53;7.78;;;1.90;;
49730;SDS011;35622;52.008;5.426;2023-01-10T03:32:32;13.50;;;2.58;;
49730;SDS011;35622;52.008;5.426;2023-01-10T03:34:58;10.05;;;1.83;;
49730;SDS011;35622;52.008;5.426;2023-01-10T03:40:15;10.90;;;1.88;;
49730;SDS011;35622;52.008;5.426;2023-01-10T03:42:59;12.05;;;2.00;;
49730;SDS011;35622;52.008;5.426;2023-01-10T03:45:50;12.93;;;2.15;;
49730;SDS011;35622;52.008;5.426;2023-01-10T03:48:25;14.55;;;2.50;;
49730;SDS011;35622;52.008;5.426;2023-01-10T03:50:55;17.23;;;2.47;;
49730;SDS011;35622;52.008;5.426;2023-01-10T03:53:22;16.20;;;2.30;;
49730;SDS011;35622;52.008;5.426;2023-01-10T03:55:48;17.58;;;2.17;;
49730;SDS011;35622;52.008;5.426;2023-01-10T03:58:14;12.15;;;1.60;;
49730;SDS011;35622;52.008;5.426;2023-01-10T04:00:41;17.02;;;2.08;;
49730;SDS011;35622;52.008;5.426;2023-01-10T04:03:06;15.85;;;1.95;;
49730;SDS011;35622;52.008;5.426;2023-01-10T04:05:36;19.00;;;2.78;;
49730;SDS011;35622;52.008;5.426;2023-01-10T04:08:02;11.77;;;1.85;;
49730;SDS011;35622;52.008;5.426;2023-01-10T04:10:28;10.57;;;2.40;;
49730;SDS011;35622;52.008;5.426;2023-01-10T04:12:53;18.90;;;2.20;;
49730;SDS011;35622;52.008;5.426;2023-01-10T04:15:22;13.40;;;2.60;;
49730;SDS011;35622;52.008;5.426;2023-01-10T04:17:48;13.13;;;2.03;;
49730;SDS011;35622;52.008;5.426;2023-01-10T04:20:14;16.48;;;2.67;;
49730;SDS011;35622;52.008;5.426;2023-01-10T04:22:39;14.27;;;2.28;;
49730;SDS011;35622;52.008;5.426;2023-01-10T04:25:05;18.02;;;2.65;;
49730;SDS011;35622;52.008;5.426;2023-01-10T04:27:31;12.68;;;2.28;;
49730;SDS011;35622;52.008;5.426;2023-01-10T04:29:56;11.05;;;2.25;;
49730;SDS011;35622;52.008;5.426;2023-01-10T04:32:22;13.57;;;2.05;;
49730;SDS011;35622;52.008;5.426;2023-01-10T04:34:47;15.15;;;2.10;;
49730;SDS011;35622;52.008;5.426;2023-01-10T04:37:13;13.98;;;2.20;;
49730;SDS011;35622;52.008;5.426;2023-01-10T04:39:38;11.05;;;1.67;;
49730;SDS011;35622;52.008;5.426;2023-01-10T04:42:04;16.02;;;2.80;;
49730;SDS011;35622;52.008;5.426;2023-01-10T04:44:30;14.38;;;2.20;;
49730;SDS011;35622;52.008;5.426;2023-01-10T04:46:55;13.38;;;2.50;;
49730;SDS011;35622;52.008;5.426;2023-01-10T04:49:21;12.68;;;2.15;;
49730;SDS011;35622;52.008;5.426;2023-01-10T04:51:46;16.20;;;2.13;;
49730;SDS011;35622;52.008;5.426;2023-01-10T04:54:12;12.15;;;1.98;;
49730;SDS011;35622;52.008;5.426;2023-01-10T04:56:37;14.60;;;2.20;;
49730;SDS011;35622;52.008;5.426;2023-01-10T04:59:04;15.27;;;2.47;;
49730;SDS011;35622;52.008;5.426;2023-01-10T05:01:30;10.63;;;2.70;;
49730;SDS011;35622;52.008;5.426;2023-01-10T05:03:56;18.15;;;2.75;;
49730;SDS011;35622;52.008;5.426;2023-01-10T05:06:22;16.65;;;2.50;;
49730;SDS011;35622;52.008;5.426;2023-01-10T05:08:49;13.20;;;2.33;;
49730;SDS011;35622;52.008;5.426;2023-01-10T05:11:14;15.95;;;2.38;;
49730;SDS011;35622;52.008;5.426;2023-01-10T05:13:40;15.10;;;2.50;;
49730;SDS011;35622;52.008;5.426;2023-01-10T05:16:06;18.02;;;2.50;;
49730;SDS011;35622;52.008;5.426;2023-01-10T05:18:32;13.82;;;2.63;;
49730;SDS011;35622;52.008;5.426;2023-01-10T05:20:59;15.70;;;3.65;;
49730;SDS011;35622;52.008;5.426;2023-01-10T05:23:25;18.27;;;2.30;;
49730;SDS011;35622;52.008;5.426;2023-01-10T05:25:51;12.02;;;1.98;;
49730;SDS011;35622;52.008;5.426;2023-01-10T05:28:17;13.63;;;2.78;;
49730;SDS011;35622;52.008;5.426;2023-01-10T05:30:42;11.80;;;1.85;;
49730;SDS011;35622;52.008;5.426;2023-01-10T05:33:08;16.77;;;2.55;;
49730;SDS011;35622;52.008;5.426;2023-01-10T05:35:33;12.73;;;2.60;;
49730;SDS011;35622;52.008;5.426;2023-01-10T05:37:59;13.80;;;2.10;;
49730;SDS011;35622;52.008;5.426;2023-01-10T05:40:25;17.13;;;2.80;;
49730;SDS011;35622;52.008;5.426;2023-01-10T05:42:50;12.60;;;2.65;;
49730;SDS011;35622;52.008;5.426;2023-01-10T05:45:16;15.10;;;2.80;;
49730;SDS011;35622;52.008;5.426;2023-01-10T05:47:41;22.73;;;2.67;;
49730;SDS011;35622;52.008;5.426;2023-01-10T05:50:08;19.83;;;2.50;;
49730;SDS011;35622;52.008;5.426;2023-01-10T05:52:34;19.52;;;3.38;;
49730;SDS011;35622;52.008;5.426;2023-01-10T05:54:59;20.38;;;3.15;;
49730;SDS011;35622;52.008;5.426;2023-01-10T05:57:25;24.27;;;4.20;;
49730;SDS011;35622;52.008;5.426;2023-01-10T05:59:51;15.50;;;2.65;;
49730;SDS011;35622;52.008;5.426;2023-01-10T06:02:16;13.75;;;2.80;;
49730;SDS011;35622;52.008;5.426;2023-01-10T06:04:42;18.77;;;3.08;;
49730;SDS011;35622;52.008;5.426;2023-01-10T06:07:07;17.40;;;2.90;;
49730;SDS011;35622;52.008;5.426;2023-01-10T06:09:33;23.10;;;3.17;;
49730;SDS011;35622;52.008;5.426;2023-01-10T06:11:59;17.17;;;3.15;;
49730;SDS011;35622;52.008;5.426;2023-01-10T06:14:24;23.52;;;3.80;;
49730;SDS011;35622;52.008;5.426;2023-01-10T06:16:50;15.70;;;2.85;;
49730;SDS011;35622;52.008;5.426;2023-01-10T06:19:15;14.95;;;3.22;;
49730;SDS011;35622;52.008;5.426;2023-01-10T06:21:41;20.35;;;2.90;;
49730;SDS011;35622;52.008;5.426;2023-01-10T06:24:07;22.15;;;3.35;;
49730;SDS011;35622;52.008;5.426;2023-01-10T06:26:32;24.35;;;3.58;;
49730;SDS011;35622;52.008;5.426;2023-01-10T06:28:58;15.25;;;2.92;;
49730;SDS011;35622;52.008;5.426;2023-01-10T06:31:24;16.08;;;3.00;;
49730;SDS011;35622;52.008;5.426;2023-01-10T06:33:50;20.08;;;3.38;;
49730;SDS011;35622;52.008;5.426;2023-01-10T06:36:16;26.48;;;4.07;;
49730;SDS011;35622;52.008;5.426;2023-01-10T06:38:42;19.83;;;3.55;;
49730;SDS011;35622;52.008;5.426;2023-01-10T06:41:07;19.30;;;3.05;;
49730;SDS011;35622;52.008;5.426;2023-01-10T06:43:39;24.15;;;3.65;;
49730;SDS011;35622;52.008;5.426;2023-01-10T06:46:06;21.38;;;3.80;;
49730;SDS011;35622;52.008;5.426;2023-01-10T06:48:33;15.32;;;3.17;;
49730;SDS011;35622;52.008;5.426;2023-01-10T06:51:00;18.42;;;3.08;;
49730;SDS011;35622;52.008;5.426;2023-01-10T06:53:26;17.23;;;3.92;;
49730;SDS011;35622;52.008;5.426;2023-01-10T06:55:53;14.23;;;3.65;;
49730;SDS011;35622;52.008;5.426;2023-01-10T06:58:19;22.58;;;4.28;;
49730;SDS011;35622;52.008;5.426;2023-01-10T07:00:44;19.88;;;4.40;;
49730;SDS011;35622;52.008;5.426;2023-01-10T07:03:10;21.08;;;3.50;;
49730;SDS011;35622;52.008;5.426;2023-01-10T07:05:35;22.08;;;4.38;;
49730;SDS011;35622;52.008;5.426;2023-01-10T07:08:01;20.25;;;3.80;;
49730;SDS011;35622;52.008;5.426;2023-01-10T07:10:27;24.58;;;4.05;;
49730;SDS011;35622;52.008;5.426;2023-01-10T07:12:56;21.73;;;4.05;;
49730;SDS011;35622;52.008;5.426;2023-01-10T07:15:22;23.63;;;4.35;;
49730;SDS011;35622;52.008;5.426;2023-01-10T07:17:48;28.15;;;4.38;;
49730;SDS011;35622;52.008;5.426;2023-01-10T07:20:13;21.92;;;4.13;;
49730;SDS011;35622;52.008;5.426;2023-01-10T07:22:39;23.08;;;3.92;;
49730;SDS011;35622;52.008;5.426;2023-01-10T07:25:05;26.40;;;4.50;;
49730;SDS011;35622;52.008;5.426;2023-01-10T07:27:31;20.48;;;4.38;;
49730;SDS011;35622;52.008;5.426;2023-01-10T07:29:57;20.83;;;5.00;;
49730;SDS011;35622;52.008;5.426;2023-01-10T07:32:23;21.45;;;5.35;;
49730;SDS011;35622;52.008;5.426;2023-01-10T07:34:49;21.25;;;4.75;;
49730;SDS011;35622;52.008;5.426;2023-01-10T07:37:15;18.70;;;4.38;;
49730;SDS011;35622;52.008;5.426;2023-01-10T07:39:40;25.60;;;5.47;;
49730;SDS011;35622;52.008;5.426;2023-01-10T07:42:07;21.75;;;5.15;;
49730;SDS011;35622;52.008;5.426;2023-01-10T07:44:33;25.85;;;6.47;;
49730;SDS011;35622;52.008;5.426;2023-01-10T07:46:59;25.45;;;5.95;;
49730;SDS011;35622;52.008;5.426;2023-01-10T07:49:24;23.92;;;5.88;;
49730;SDS011;35622;52.008;5.426;2023-01-10T07:51:50;21.77;;;5.35;;
49730;SDS011;35622;52.008;5.426;2023-01-10T07:54:16;21.67;;;4.97;;
49730;SDS011;35622;52.008;5.426;2023-01-10T07:56:41;23.30;;;4.95;;
49730;SDS011;35622;52.008;5.426;2023-01-10T07:59:07;21.70;;;4.88;;
49730;SDS011;35622;52.008;5.426;2023-01-10T08:01:33;21.48;;;5.13;;
49730;SDS011;35622;52.008;5.426;2023-01-10T08:03:59;22.27;;;4.65;;
49730;SDS011;35622;52.008;5.426;2023-01-10T08:06:25;24.92;;;5.00;;
49730;SDS011;35622;52.008;5.426;2023-01-10T08:08:50;22.90;;;4.60;;
49730;SDS011;35622;52.008;5.426;2023-01-10T08:11:16;21.75;;;4.32;;
49730;SDS011;35622;52.008;5.426;2023-01-10T08:13:41;23.52;;;4.72;;
49730;SDS011;35622;52.008;5.426;2023-01-10T08:16:07;26.40;;;4.60;;
49730;SDS011;35622;52.008;5.426;2023-01-10T08:18:33;21.23;;;4.15;;
49730;SDS011;35622;52.008;5.426;2023-01-10T08:20:59;19.25;;;4.30;;
49730;SDS011;35622;52.008;5.426;2023-01-10T08:23:25;22.42;;;4.60;;
49730;SDS011;35622;52.008;5.426;2023-01-10T08:25:51;16.33;;;4.75;;
49730;SDS011;35622;52.008;5.426;2023-01-10T08:28:16;23.83;;;4.85;;
49730;SDS011;35622;52.008;5.426;2023-01-10T08:30:42;25.45;;;4.22;;
49730;SDS011;35622;52.008;5.426;2023-01-10T08:33:08;20.45;;;4.20;;
49730;SDS011;35622;52.008;5.426;2023-01-10T08:35:35;22.25;;;4.60;;
49730;SDS011;35622;52.008;5.426;2023-01-10T08:38:05;19.25;;;4.00;;
49730;SDS011;35622;52.008;5.426;2023-01-10T08:40:31;21.23;;;4.55;;
49730;SDS011;35622;52.008;5.426;2023-01-10T08:42:57;21.52;;;4.13;;
49730;SDS011;35622;52.008;5.426;2023-01-10T08:45:23;20.40;;;5.05;;
49730;SDS011;35622;52.008;5.426;2023-01-10T08:47:49;15.55;;;3.92;;
49730;SDS011;35622;52.008;5.426;2023-01-10T08:50:15;29.80;;;4.20;;
49730;SDS011;35622;52.008;5.426;2023-01-10T08:52:41;16.38;;;3.83;;
49730;SDS011;35622;52.008;5.426;2023-01-10T08:55:07;19.73;;;3.92;;
49730;SDS011;35622;52.008;5.426;2023-01-10T08:57:33;18.73;;;3.65;;
49730;SDS011;35622;52.008;5.426;2023-01-10T08:59:58;16.73;;;4.20;;
49730;SDS011;35622;52.008;5.426;2023-01-10T09:02:24;22.23;;;3.72;;
49730;SDS011;35622;52.008;5.426;2023-01-10T09:04:49;18.95;;;3.72;;
49730;SDS011;35622;52.008;5.426;2023-01-10T09:07:15;18.55;;;3.95;;
49730;SDS011;35622;52.008;5.426;2023-01-10T09:09:40;17.45;;;3.58;;
49730;SDS011;35622;52.008;5.426;2023-01-10T09:12:06;18.70;;;4.55;;
49730;SDS011;35622;52.008;5.426;2023-01-10T09:14:52;14.95;;;3.50;;
49730;SDS011;35622;52.008;5.426;2023-01-10T09:17:17;18.58;;;3.47;;
49730;SDS011;35622;52.008;5.426;2023-01-10T09:19:43;21.35;;;3.85;;
49730;SDS011;35622;52.008;5.426;2023-01-10T09:22:08;16.17;;;3.22;;
49730;SDS011;35622;52.008;5.426;2023-01-10T09:24:34;22.38;;;3.92;;
49730;SDS011;35622;52.008;5.426;2023-01-10T09:27:01;13.80;;;4.05;;
49730;SDS011;35622;52.008;5.426;2023-01-10T09:29:27;17.17;;;3.50;;
49730;SDS011;35622;52.008;5.426;2023-01-10T09:31:52;16.60;;;3.72;;
49730;SDS011;35622;52.008;5.426;2023-01-10T09:34:18;21.30;;;3.50;;
49730;SDS011;35622;52.008;5.426;2023-01-10T09:36:43;20.02;;;4.10;;
49730;SDS011;35622;52.008;5.426;2023-01-10T09:39:09;23.65;;;4.28;;
49730;SDS011;35622;52.008;5.426;2023-01-10T09:44:59;16.23;;;3.67;;
49730;SDS011;35622;52.008;5.426;2023-01-10T09:53:05;17.23;;;3.53;;
49730;SDS011;35622;52.008;5.426;2023-01-10T09:55:54;20.17;;;4.53;;
49730;SDS011;35622;52.008;5.426;2023-01-10T09:58:23;22.00;;;3.55;;
49730;SDS011;35622;52.008;5.426;2023-01-10T10:06:01;18.60;;;3.20;;
49730;SDS011;35622;52.008;5.426;2023-01-10T10:08:27;16.20;;;3.13;;
49730;SDS011;35622;52.008;5.426;2023-01-10T10:11:04;19.27;;;3.63;;
49730;SDS011;35622;52.008;5.426;2023-01-10T10:13:46;16.60;;;3.40;;
49730;SDS011;35622;52.008;5.426;2023-01-10T10:21:51;16.70;;;3.15;;
49730;SDS011;35622;52.008;5.426;2023-01-10T10:24:38;21.45;;;3.53;;
49730;SDS011;35622;52.008;5.426;2023-01-10T10:27:15;16.20;;;3.67;;
49730;SDS011;35622;52.008;5.426;2023-01-10T10:32:27;14.02;;;3.10;;
49730;SDS011;35622;52.008;5.426;2023-01-10T10:35:07;14.55;;;3.00;;
49730;SDS011;35622;52.008;5.426;2023-01-10T10:37:40;19.40;;;3.80;;
49730;SDS011;35622;52.008;5.426;2023-01-10T10:42:38;17.33;;;3.63;;
49730;SDS011;35622;52.008;5.426;2023-01-10T10:47:50;19.95;;;3.75;;
49730;SDS011;35622;52.008;5.426;2023-01-10T10:52:52;16.00;;;3.28;;
49730;SDS011;35622;52.008;5.426;2023-01-10T10:55:20;17.88;;;2.78;;
49730;SDS011;35622;52.008;5.426;2023-01-10T10:57:52;18.70;;;3.40;;
49730;SDS011;35622;52.008;5.426;2023-01-10T11:00:19;15.15;;;3.05;;
49730;SDS011;35622;52.008;5.426;2023-01-10T11:02:48;15.00;;;3.22;;
49730;SDS011;35622;52.008;5.426;2023-01-10T11:05:20;16.73;;;3.35;;
49730;SDS011;35622;52.008;5.426;2023-01-10T11:07:54;12.65;;;3.17;;
49730;SDS011;35622;52.008;5.426;2023-01-10T11:10:24;18.88;;;3.35;;
49730;SDS011;35622;52.008;5.426;2023-01-10T11:13:03;16.45;;;2.50;;
49730;SDS011;35622;52.008;5.426;2023-01-10T11:15:42;20.52;;;3.17;;
49730;SDS011;35622;52.008;5.426;2023-01-10T11:18:17;13.50;;;2.50;;
49730;SDS011;35622;52.008;5.426;2023-01-10T11:20:45;20.35;;;3.15;;
49730;SDS011;35622;52.008;5.426;2023-01-10T11:28:51;13.15;;;2.40;;
49730;SDS011;35622;52.008;5.426;2023-01-10T11:31:29;16.92;;;2.70;;
49730;SDS011;35622;52.008;5.426;2023-01-10T11:33:55;17.48;;;3.10;;
49730;SDS011;35622;52.008;5.426;2023-01-10T11:36:21;16.23;;;3.15;;
49730;SDS011;35622;52.008;5.426;2023-01-10T11:38:59;15.55;;;3.15;;
49730;SDS011;35622;52.008;5.426;2023-01-10T11:41:26;18.75;;;4.10;;
49730;SDS011;35622;52.008;5.426;2023-01-10T11:44:19;18.98;;;3.35;;
49730;SDS011;35622;52.008;5.426;2023-01-10T11:47:00;16.20;;;2.60;;
49730;SDS011;35622;52.008;5.426;2023-01-10T11:49:39;14.52;;;2.85;;
49730;SDS011;35622;52.008;5.426;2023-01-10T11:54:51;16.25;;;3.15;;
49730;SDS011;35622;52.008;5.426;2023-01-10T11:57:20;18.65;;;3.50;;
49730;SDS011;35622;52.008;5.426;2023-01-10T11:59:51;18.77;;;3.03;;
49730;SDS011;35622;52.008;5.426;2023-01-10T12:02:33;12.48;;;3.00;;
49730;SDS011;35622;52.008;5.426;2023-01-10T12:05:02;16.80;;;2.72;;
49730;SDS011;35622;52.008;5.426;2023-01-10T12:07:52;17.55;;;3.13;;
49730;SDS011;35622;52.008;5.426;2023-01-10T12:10:20;17.50;;;3.47;;
49730;SDS011;35622;52.008;5.426;2023-01-10T12:12:57;13.07;;;2.53;;
49730;SDS011;35622;52.008;5.426;2023-01-10T12:15:31;15.65;;;2.63;;
49730;SDS011;35622;52.008;5.426;2023-01-10T12:17:59;13.80;;;2.63;;
49730;SDS011;35622;52.008;5.426;2023-01-10T12:20:28;16.17;;;3.10;;
49730;SDS011;35622;52.008;5.426;2023-01-10T12:22:56;18.25;;;3.05;;
49730;SDS011;35622;52.008;5.426;2023-01-10T12:25:33;14.50;;;2.58;;
49730;SDS011;35622;52.008;5.426;2023-01-10T12:28:01;11.93;;;2.58;;
49730;SDS011;35622;52.008;5.426;2023-01-10T12:30:40;16.27;;;2.75;;
49730;SDS011;35622;52.008;5.426;2023-01-10T12:33:13;13.02;;;3.35;;
49730;SDS011;35622;52.008;5.426;2023-01-10T12:38:35;16.77;;;2.78;;
49730;SDS011;35622;52.008;5.426;2023-01-10T12:41:51;17.70;;;3.15;;
49730;SDS011;35622;52.008;5.426;2023-01-10T12:44:40;15.40;;;3.00;;
49730;SDS011;35622;52.008;5.426;2023-01-10T12:47:23;17.10;;;2.90;;
49730;SDS011;35622;52.008;5.426;2023-01-10T12:50:10;12.90;;;2.53;;
49730;SDS011;35622;52.008;5.426;2023-01-10T12:52:43;16.95;;;3.08;;
49730;SDS011;35622;52.008;5.426;2023-01-10T12:57:39;20.27;;;3.17;;
49730;SDS011;35622;52.008;5.426;2023-01-10T13:00:09;17.75;;;2.67;;
49730;SDS011;35622;52.008;5.426;2023-01-10T13:02:44;13.77;;;2.50;;
49730;SDS011;35622;52.008;5.426;2023-01-10T13:05:19;12.05;;;2.83;;
49730;SDS011;35622;52.008;5.426;2023-01-10T13:07:47;18.33;;;3.15;;
49730;SDS011;35622;52.008;5.426;2023-01-10T13:10:15;16.05;;;2.58;;
49730;SDS011;35622;52.008;5.426;2023-01-10T13:12:46;16.77;;;4.00;;
49730;SDS011;35622;52.008;5.426;2023-01-10T13:15:23;37.95;;;4.50;;
49730;SDS011;35622;52.008;5.426;2023-01-10T13:18:01;13.50;;;3.10;;
49730;SDS011;35622;52.008;5.426;2023-01-10T13:20:40;20.73;;;3.80;;
49730;SDS011;35622;52.008;5.426;2023-01-10T13:23:12;12.88;;;2.83;;
49730;SDS011;35622;52.008;5.426;2023-01-10T13:25:51;14.27;;;3.10;;
49730;SDS011;35622;52.008;5.426;2023-01-10T13:28:19;15.85;;;2.70;;
49730;SDS011;35622;52.008;5.426;2023-01-10T13:30:52;14.13;;;2.30;;
49730;SDS011;35622;52.008;5.426;2023-01-10T13:35:48;13.43;;;2.85;;
49730;SDS011;35622;52.008;5.426;2023-01-10T13:38:16;15.82;;;3.13;;
49730;SDS011;35622;52.008;5.426;2023-01-10T13:40:56;21.00;;;3.42;;
49730;SDS011;35622;52.008;5.426;2023-01-10T13:48:41;17.55;;;2.78;;
49730;SDS011;35622;52.008;5.426;2023-01-10T13:51:27;22.50;;;3.80;;
49730;SDS011;35622;52.008;5.426;2023-01-10T13:53:57;16.70;;;2.70;;
49730;SDS011;35622;52.008;5.426;2023-01-10T13:56:31;15.60;;;2.83;;
49730;SDS011;35622;52.008;5.426;2023-01-10T13:58:57;17.17;;;3.38;;
49730;SDS011;35622;52.008;5.426;2023-01-10T14:01:42;20.52;;;3.78;;
49730;SDS011;35622;52.008;5.426;2023-01-10T14:04:33;15.23;;;3.10;;
49730;SDS011;35622;52.008;5.426;2023-01-10T14:07:46;14.00;;;2.58;;
49730;SDS011;35622;52.008;5.426;2023-01-10T14:09:57;13.15;;;2.85;;
49730;SDS011;35622;52.008;5.426;2023-01-10T14:12:30;15.45;;;3.03;;
49730;SDS011;35622;52.008;5.426;2023-01-10T14:15:04;18.45;;;3.45;;
49730;SDS011;35622;52.008;5.426;2023-01-10T14:17:50;20.05;;;3.45;;
49730;SDS011;35622;52.008;5.426;2023-01-10T14:20:22;15.52;;;2.60;;
49730;SDS011;35622;52.008;5.426;2023-01-10T14:23:05;14.65;;;2.80;;
49730;SDS011;35622;52.008;5.426;2023-01-10T14:25:34;16.60;;;3.17;;
49730;SDS011;35622;52.008;5.426;2023-01-10T14:28:02;17.52;;;3.17;;
49730;SDS011;35622;52.008;5.426;2023-01-10T14:30:35;18.50;;;3.10;;
49730;SDS011;35622;52.008;5.426;2023-01-10T14:33:18;16.63;;;3.17;;
49730;SDS011;35622;52.008;5.426;2023-01-10T14:35:46;14.52;;;3.40;;
49730;SDS011;35622;52.008;5.426;2023-01-10T14:38:17;14.63;;;3.10;;
49730;SDS011;35622;52.008;5.426;2023-01-10T14:40:49;14.07;;;3.20;;
49730;SDS011;35622;52.008;5.426;2023-01-10T14:43:21;15.57;;;3.17;;
49730;SDS011;35622;52.008;5.426;2023-01-10T14:48:23;20.10;;;3.50;;
49730;SDS011;35622;52.008;5.426;2023-01-10T14:50:51;17.13;;;2.75;;
49730;SDS011;35622;52.008;5.426;2023-01-10T14:53:27;17.73;;;3.92;;
49730;SDS011;35622;52.008;5.426;2023-01-10T14:55:54;19.10;;;3.17;;
49730;SDS011;35622;52.008;5.426;2023-01-10T14:58:20;12.25;;;3.08;;
49730;SDS011;35622;52.008;5.426;2023-01-10T15:00:46;13.80;;;3.03;;
49730;SDS011;35622;52.008;5.426;2023-01-10T15:03:18;20.88;;;4.07;;
49730;SDS011;35622;52.008;5.426;2023-01-10T15:05:46;14.60;;;3.35;;
49730;SDS011;35622;52.008;5.426;2023-01-10T15:10:55;17.35;;;3.00;;
49730;SDS011;35622;52.008;5.426;2023-01-10T15:13:31;19.90;;;4.07;;
49730;SDS011;35622;52.008;5.426;2023-01-10T15:16:00;18.05;;;3.55;;
49730;SDS011;35622;52.008;5.426;2023-01-10T15:18:39;16.33;;;3.35;;
49730;SDS011;35622;52.008;5.426;2023-01-10T15:21:09;17.75;;;4.15;;
49730;SDS011;35622;52.008;5.426;2023-01-10T15:23:37;15.88;;;3.80;;
49730;SDS011;35622;52.008;5.426;2023-01-10T15:26:05;16.60;;;3.65;;
49730;SDS011;35622;52.008;5.426;2023-01-10T15:28:34;16.80;;;3.67;;
49730;SDS011;35622;52.008;5.426;2023-01-10T15:31:02;14.48;;;3.42;;
49730;SDS011;35622;52.008;5.426;2023-01-10T15:33:30;14.50;;;3.13;;
49730;SDS011;35622;52.008;5.426;2023-01-10T15:36:02;13.30;;;3.63;;
49730;SDS011;35622;52.008;5.426;2023-01-10T15:38:36;13.95;;;3.58;;
49730;SDS011;35622;52.008;5.426;2023-01-10T15:41:06;21.15;;;4.10;;
49730;SDS011;35622;52.008;5.426;2023-01-10T15:43:32;16.67;;;4.25;;
49730;SDS011;35622;52.008;5.426;2023-01-10T15:46:00;11.13;;;3.50;;
49730;SDS011;35622;52.008;5.426;2023-01-10T15:51:00;12.38;;;3.20;;
49730;SDS011;35622;52.008;5.426;2023-01-10T15:59:01;13.68;;;3.15;;
49730;SDS011;35622;52.008;5.426;2023-01-10T16:01:28;14.15;;;3.13;;
49730;SDS011;35622;52.008;5.426;2023-01-10T16:03:56;14.80;;;3.35;;
49730;SDS011;35622;52.008;5.426;2023-01-10T16:06:25;10.40;;;3.22;;
49730;SDS011;35622;52.008;5.426;2023-01-10T16:08:59;12.55;;;3.28;;
49730;SDS011;35622;52.008;5.426;2023-01-10T16:11:32;12.10;;;2.97;;
49730;SDS011;35622;52.008;5.426;2023-01-10T16:14:20;13.32;;;3.00;;
49730;SDS011;35622;52.008;5.426;2023-01-10T16:16:46;12.05;;;2.80;;
49730;SDS011;35622;52.008;5.426;2023-01-10T16:19:11;10.45;;;2.90;;
49730;SDS011;35622;52.008;5.426;2023-01-10T16:21:41;11.18;;;2.83;;
49730;SDS011;35622;52.008;5.426;2023-01-10T16:24:16;10.43;;;2.92;;
49730;SDS011;35622;52.008;5.426;2023-01-10T16:26:45;11.13;;;3.28;;
49730;SDS011;35622;52.008;5.426;2023-01-10T16:29:11;11.35;;;2.67;;
49730;SDS011;35622;52.008;5.426;2023-01-10T16:31:37;11.63;;;2.88;;
49730;SDS011;35622;52.008;5.426;2023-01-10T16:34:02;13.15;;;4.57;;